Kellerton, Iowa
Current Conditions -  °F | °C
As of 4:53 PM on Thursday 27 Nov 2014 (Local Time) from KLWD Reporting Station
Few Clouds Few Clouds  
Wind Chill: 13°   Ceiling: Unl
Heat Index: 20°   Visibility: 10mi
Dew Point: 10°   Wind: 5mph
Humidity: 65%   Direction: 80°E
Pressure: 30.39"   Gusts: NA
Location:  40.71°N, 94.05°W
Report Text: KLWD 272253Z AUTO 08004KT 10SM FEW100 M07/M12 A3039 RMK AO2 SLP312 T10671122
Loading
Personal Weather Stations






























Interactive Weather Map New forecast layout! Learn more

10-Day Weather Forecast

Advertisements
Track Severe Weather on mobile